Flight Track Log - Related Links

Times and Time Zones

All times are in EDT time to prevent confusion due to time zone crossing. See the UAL4202 flight status page for this flight to view local times or setup timezone preferences in your user account.


Time Position Orientation Groundspeed Altitude Reporting Facility
EDT Latitude Longitude Course Direction KTS MPH feet Rate Location/Type
Fri 05:49:09 PM 40.7500 -74.1167 303° West 214 246 2,700  Level New York TRACON
Fri 05:50:09 PM 40.7833 -74.1667 311° West 231 266 4,100 1,524 Climbing New York TRACON
Fri 05:51:00 PM 40.7477 -74.6750 277° West  Level FlightAware Approximate
Fri 05:51:15 PM 40.8167 -74.2500 298° West 244 281 5,900  Level New York TRACON
Fri 05:52:00 PM 40.7583 -74.8070 276° West  Level FlightAware Approximate
Fri 05:52:15 PM 40.8167 -74.3333 270° West 246 283 8,600  Level New York TRACON
Fri 05:53:00 PM 40.7735 -74.9372 294° West  Level FlightAware Approximate
Fri 05:53:09 PM 40.8167 -74.4167 270° West 246 283 10,800  Level New York TRACON
Fri 05:54:00 PM 40.7836 -75.0672 303° West  Level FlightAware Approximate
Fri 05:55:07 PM 40.8089 -74.6286 267° West 292 336 12,600  Level New York Center
Fri 05:56:08 PM 40.8078 -74.7300 269° West 316 364 13,900 1,328 Climbing New York Center
Fri 05:57:09 PM 40.8056 -74.8558 269° West 316 364 15,300 1,424 Climbing New York Center
Fri 05:58:06 PM 40.8056 -74.9711 270° West 316 364 16,700 1,385 Climbing New York Center
Fri 05:59:06 PM 40.8036 -75.0861 269° West 311 358 18,000 1,377 Climbing New York Center
Fri 06:00:08 PM 40.7911 -75.2003 262° West 311 358 19,500 1,230 Climbing New York Center
Fri 06:01:08 PM 40.7744 -75.3061 258° West 316 364 20,500 966 Climbing New York Center
Fri 06:02:06 PM 40.7492 -75.4250 254° West 326 375 21,400 1,169 Climbing New York Center
Fri 06:03:06 PM 40.7069 -75.5425 245° Southwest 332 382 22,800 1,339 Climbing New York Center
Fri 06:04:07 PM 40.6647 -75.6572 244° Southwest 349 402 24,100 1,289 Climbing New York Center
Fri 06:05:07 PM 40.6250 -75.7611 243° Southwest 349 402 25,400 1,289 Climbing New York Center
Fri 06:06:08 PM 40.5847 -75.8703 244° Southwest 337 388 26,700 1,311 Climbing New York Center
Fri 06:07:06 PM 40.5453 -75.9656 241° Southwest 331 381 28,000 1,271 Climbing New York Center
Fri 06:08:06 PM 40.5050 -76.0719 244° Southwest 331 381 29,200 1,050 Climbing New York Center
Fri 06:09:06 PM 40.4628 -76.1750 242° Southwest 331 381 30,100 900 Climbing New York Center
Fri 06:10:06 PM 40.4247 -76.2811 245° Southwest 331 381 31,000 843 Climbing New York Center
Fri 06:11:07 PM 40.3819 -76.3922 243° Southwest 336 387 31,800 843 Climbing New York Center
Fri 06:12:07 PM 40.3389 -76.5083 244° Southwest 341 392 32,700 850 Climbing New York Center
Fri 06:13:07 PM 40.2894 -76.6186 240° Southwest 348 400 33,500 807 Climbing New York Center
Fri 06:14:06 PM 40.2461 -76.7375 245° Southwest 358 412 34,300 850 Climbing New York Center
Fri 06:15:07 PM 40.1989 -76.8475 241° Southwest 358 412 35,200 850 Climbing New York Center
Fri 06:16:06 PM 40.1533 -76.9603 242° Southwest 358 412 36,000 400 Climbing New York Center
Fri 06:17:07 PM 40.1092 -77.0842 245° Southwest 358 412 36,000  Level New York Center
Fri 06:19:03 PM 40.0139 -77.3167 242° Southwest 381 438 36,000  Level Cleveland Center
Fri 06:20:03 PM 39.9653 -77.4381 242° Southwest 386 444 36,000  Level Cleveland Center
Fri 06:21:03 PM 39.9586 -77.5711 266° West 365 420 36,000  Level Cleveland Center
Fri 06:22:03 PM 39.9661 -77.7008 274° West 365 420 36,000  Level Cleveland Center
Fri 06:23:03 PM 39.9672 -77.8336 271° West 365 420 36,000  Level Cleveland Center
Fri 06:24:03 PM 39.9703 -77.9661 272° West 365 420 36,000  Level Cleveland Center
Fri 06:25:03 PM 39.9756 -78.0986 273° West 365 420 36,000  Level Cleveland Center
Fri 06:26:03 PM 39.9783 -78.2369 272° West 371 427 36,000  Level Cleveland Center
Fri 06:27:03 PM 39.9814 -78.3831 272° West 371 427 36,000  Level Cleveland Center
Fri 06:28:03 PM 39.9839 -78.5239 271° West 376 433 36,000  Level Cleveland Center
Fri 06:29:03 PM 39.9886 -78.6647 273° West 386 444 36,000  Level Cleveland Center
Fri 06:30:03 PM 39.9906 -78.7975 271° West 386 444 36,000  Level Cleveland Center
Fri 06:31:03 PM 39.9922 -78.9111 271° West 368 423 36,000  Level Cleveland Center
Fri 06:32:03 PM 40.0006 -79.0436 275° West 362 417 36,000  Level Cleveland Center
Fri 06:33:03 PM 40.0003 -79.1792 270° West 367 422 36,000  Level Cleveland Center
Fri 06:34:03 PM 40.0039 -79.3308 272° West 373 429 36,000  Level Cleveland Center
Fri 06:35:03 PM 40.0075 -79.4744 272° West 384 442 36,000  Level Cleveland Center
Fri 06:36:03 PM 40.0089 -79.6156 271° West 389 448 36,000  Level Cleveland Center
Fri 06:37:03 PM 40.0100 -79.7483 271° West 384 442 36,000  Level Cleveland Center
Fri 06:38:03 PM 40.0108 -79.8811 271° West 379 436 36,000  Level Cleveland Center
Fri 06:39:03 PM 40.0114 -80.0031 270° West 357 411 36,000  Level Cleveland Center
Fri 06:40:03 PM 40.0142 -80.1278 272° West 351 404 36,000  Level Cleveland Center
Fri 06:41:03 PM 40.0167 -80.2550 272° West 346 398 36,000  Level Cleveland Center
Fri 06:42:03 PM 40.0169 -80.3906 270° West 359 413 36,000  Level Cleveland Center
Fri 06:43:03 PM 40.0172 -80.5261 270° West 366 421 36,000  Level Cleveland Center
Fri 06:44:03 PM 40.0172 -80.6644 270° West 376 433 36,000  Level Cleveland Center
Fri 06:46:09 PM 40.0136 -80.9578 269° West 385 443 36,000  Level Indianapolis Center
Fri 06:47:11 PM 40.0125 -81.0983 269° West 385 443 36,000  Level Indianapolis Center
Fri 06:48:14 PM 40.0103 -81.2411 269° West 389 448 36,000  Level Indianapolis Center
Fri 06:49:16 PM 40.0078 -81.3833 269° West 389 448 36,000  Level Indianapolis Center
Fri 06:50:18 PM 40.0044 -81.5253 268° West 388 447 36,000  Level Indianapolis Center
Fri 06:51:20 PM 40.0025 -81.6672 269° West 387 445 36,000  Level Indianapolis Center
Fri 06:52:22 PM 39.9989 -81.8269 268° West 387 445 36,000  Level Indianapolis Center
Fri 06:53:24 PM 39.9956 -81.9675 268° West 384 442 36,000  Level Indianapolis Center
Fri 06:54:26 PM 39.9922 -82.1078 268° West 384 442 36,000  Level Indianapolis Center
Fri 06:55:28 PM 39.9881 -82.2492 268° West 386 444 36,000  Level Indianapolis Center
Fri 06:56:30 PM 39.9850 -82.3883 268° West 382 440 36,000  Level Indianapolis Center
Fri 06:57:32 PM 39.9811 -82.5297 268° West 387 445 36,000  Level Indianapolis Center
Fri 06:58:34 PM 39.9769 -82.6692 268° West 382 440 36,000  Level Indianapolis Center
Fri 06:59:36 PM 39.9722 -82.8319 268° West 383 441 36,000  Level Indianapolis Center
Fri 07:00:38 PM 39.9681 -82.9711 268° West 381 438 36,000  Level Indianapolis Center
Fri 07:01:40 PM 39.9644 -83.1103 268° West 383 441 36,000  Level Indianapolis Center
Fri 07:02:42 PM 39.9608 -83.2489 268° West 382 440 36,000  Level Indianapolis Center
Fri 07:03:44 PM 39.9567 -83.3856 268° West 381 438 36,000  Level Indianapolis Center
Fri 07:04:46 PM 39.9503 -83.5439 267° West 382 440 36,000  Level Indianapolis Center
Fri 07:05:48 PM 39.9447 -83.6800 267° West 380 437 36,000  Level Indianapolis Center
Fri 07:06:50 PM 39.9403 -83.8178 268° West 380 437 36,000  Level Indianapolis Center
Fri 07:07:52 PM 39.9344 -83.9572 267° West 382 440 36,000  Level Indianapolis Center
Fri 07:08:54 PM 39.9286 -84.0953 267° West 380 437 36,000  Level Indianapolis Center
Fri 07:09:56 PM 39.9236 -84.2336 267° West 380 437 36,000  Level Indianapolis Center
Fri 07:10:58 PM 39.9167 -84.3956 267° West 380 437 36,000  Level Indianapolis Center
Fri 07:12:00 PM 39.9100 -84.5339 266° West 381 438 36,000  Level Indianapolis Center
Fri 07:13:02 PM 39.9042 -84.6728 267° West 381 438 36,000  Level Indianapolis Center
Fri 07:14:04 PM 39.8975 -84.8119 266° West 382 440 36,000  Level Indianapolis Center
Fri 07:15:06 PM 39.8906 -84.9406 266° West 381 438 36,000  Level Indianapolis Center
Fri 07:16:08 PM 39.8833 -85.1031 267° West 381 438 36,000  Level Indianapolis Center
Fri 07:17:10 PM 39.8761 -85.2419 266° West 382 440 36,000  Level Indianapolis Center
Fri 07:18:12 PM 39.8556 -85.3811 259° West 389 448 36,000  Level Indianapolis Center
Fri 07:19:14 PM 39.8322 -85.5197 258° West 389 448 36,000  Level Indianapolis Center
Fri 07:20:16 PM 39.8100 -85.6589 258° West 390 449 36,000  Level Indianapolis Center
Fri 07:21:18 PM 39.7872 -85.7975 258° West 389 448 36,000  Level Indianapolis Center
Fri 07:22:20 PM 39.7642 -85.9367 258° West 390 449 36,000  Level Indianapolis Center
Fri 07:23:22 PM 39.7375 -86.0989 258° West 389 448 36,000  Level Indianapolis Center
Fri 07:24:24 PM 39.7164 -86.2156 257° West 392 451 36,000  Level Indianapolis Center
Fri 07:25:25 PM 39.6883 -86.3794 258° West 389 448 36,000  Level Indianapolis Center
Fri 07:26:27 PM 39.6686 -86.5006 258° West 389 448 36,000  Level Indianapolis Center
Fri 07:27:29 PM 39.6403 -86.6617 257° West 388 447 36,000  Level Indianapolis Center
Fri 07:28:31 PM 39.6167 -86.7986 257° West 388 447 36,000  Level Indianapolis Center
Fri 07:29:33 PM 39.5919 -86.9367 257° West 389 448 36,000  Level Indianapolis Center
Fri 07:30:35 PM 39.5678 -87.0739 257° West 389 448 36,000  Level Indianapolis Center
Fri 07:31:36 PM 39.5431 -87.2122 257° West 389 448 36,000  Level Indianapolis Center
Fri 07:32:38 PM 39.5183 -87.3508 257° West 392 451 36,000 -435 Level Indianapolis Center
Fri 07:33:40 PM 39.4925 -87.4892 256° West 393 452 35,100 -1,403 Descending Indianapolis Center
Fri 07:34:42 PM 39.4678 -87.6269 257° West 389 448 33,100 -1,935 Descending Indianapolis Center
Fri 07:35:44 PM 39.4436 -87.7567 256° West 372 428 31,100 -2,050 Descending Indianapolis Center
Fri 07:36:42 PM 39.4206 -87.8975 258° West 368 423 29,000 -2,085 Descending Kansas City Center
Fri 07:37:42 PM 39.3933 -88.0414 256° West 393 452 27,000 -1,983 Descending Kansas City Center
Fri 07:38:43 PM 39.3514 -88.1950 251° West 429 494 25,000 -1,476 Descending Kansas City Center
Fri 07:39:48 PM 39.3153 -88.3328 251° West 416 479 23,900 -1,056 Descending Kansas City Center
Fri 07:40:48 PM 39.2817 -88.4606 251° West 386 444 22,800 -1,258 Descending Kansas City Center
Fri 07:41:52 PM 39.2497 -88.5825 251° West 366 421 21,300 -1,500 Descending Kansas City Center
Fri 07:42:52 PM 39.2172 -88.7017 251° West 346 398 19,700 -1,512 Descending Kansas City Center
Fri 07:43:55 PM 39.1864 -88.8181 251° West 343 395 18,200 -1,392 Descending Kansas City Center
Fri 07:44:57 PM 39.1475 -88.9567 250° West 343 395 16,800 -1,220 Descending Kansas City Center
Fri 07:45:58 PM 39.1158 -89.0739 251° West 332 382 15,700 -864 Descending Kansas City Center
Fri 07:47:02 PM 39.0853 -89.1919 252° West 345 397 15,000 -512 Descending Kansas City Center
Fri 07:47:20 PM 39.0772 -89.1800 131° Southeast 362 417 15,000  Level FAA TRACON SMA TRACON (SMA)
Fri 07:47:40 PM 39.0689 -89.2194 255° West 369 425 15,000  Level FAA TRACON SMA TRACON (SMA)
Fri 07:48:01 PM 39.0575 -89.2692 254° West 378 435 15,000  Level FAA TRACON SMA TRACON (SMA)
Fri 07:48:20 PM 39.0472 -89.3092 252° West 382 440 15,000  Level FAA TRACON SMA TRACON (SMA)
Fri 07:48:40 PM 39.0381 -89.3494 254° West 383 441 15,000  Level FAA TRACON SMA TRACON (SMA)
Fri 07:49:01 PM 39.0261 -89.3983 253° West 376 433 15,000  Level FAA TRACON SMA TRACON (SMA)
Fri 07:49:21 PM 39.0181 -89.4378 255° West 371 427 15,000  Level FAA TRACON SMA TRACON (SMA)
Fri 07:49:40 PM 39.0067 -89.4756 249° West 368 423 15,000  Level FAA TRACON SMA TRACON (SMA)
Fri 07:50:01 PM 38.9967 -89.5244 255° West 366 421 15,000 -293 Level FAA TRACON SMA TRACON (SMA)
Fri 07:50:21 PM 38.9844 -89.5628 248° West 373 429 14,800 -923 Descending FAA TRACON SMA TRACON (SMA)
Fri 07:50:40 PM 38.9731 -89.6003 249° West 369 425 14,400 -1,800 Descending FAA TRACON SMA TRACON (SMA)
Fri 07:51:01 PM 38.9583 -89.6442 247° West 352 405 13,600 -2,049 Descending FAA TRACON SMA TRACON (SMA)
Fri 07:51:21 PM 38.9481 -89.6781 249° West 338 389 13,000 -1,800 Descending FAA TRACON SMA TRACON (SMA)
Fri 07:51:41 PM 38.9369 -89.7114 247° West 328 377 12,400 -2,049 Descending FAA TRACON SMA TRACON (SMA)
Fri 07:52:02 PM 38.9239 -89.7511 247° West 319 367 11,600 -1,800 Descending FAA TRACON SMA TRACON (SMA)
Fri 07:52:21 PM 38.9150 -89.7831 250° West 309 356 11,200 -923 Descending FAA TRACON SMA TRACON (SMA)
Fri 07:52:41 PM 38.9047 -89.8114 245° Southwest 293 337 11,000 -1,200 Descending FAA TRACON SMA TRACON (SMA)
Fri 07:53:01 PM 38.8939 -89.8469 249° West 278 320 10,400 -1,500 Descending FAA TRACON SMA TRACON (SMA)
Fri 07:53:21 PM 38.8856 -89.8753 249° West 277 319 10,000 -1,463 Descending FAA TRACON SMA TRACON (SMA)
Fri 07:53:42 PM 38.8731 -89.9114 246° West 286 329 9,400 -1,463 Descending FAA TRACON SMA TRACON (SMA)
Fri 07:54:02 PM 38.8642 -89.9394 248° West 278 320 9,000 -1,050 Descending FAA TRACON SMA TRACON (SMA)
Fri 07:54:22 PM 38.8556 -89.9664 248° West 270 311 8,700 -1,050 Descending FAA TRACON SMA TRACON (SMA)
Fri 07:54:42 PM 38.8444 -90.0008 248° West 272 313 8,300 -1,077 Descending FAA TRACON SMA TRACON (SMA)
Fri 07:55:01 PM 38.8356 -90.0278 247° West 268 308 8,000 -462 Descending FAA TRACON SMA TRACON (SMA)
Fri 07:55:21 PM 38.8272 -90.0539 248° West 260 299 8,000  Level FAA TRACON SMA TRACON (SMA)
Fri 07:55:41 PM 38.8192 -90.0806 249° West 258 297 8,000  Level FAA TRACON SMA TRACON (SMA)
Fri 07:56:02 PM 38.8083 -90.1139 247° West 261 300 8,000  Level FAA TRACON SMA TRACON (SMA)
Fri 07:56:22 PM 38.8006 -90.1406 249° West 263 303 8,000  Level FAA TRACON SMA TRACON (SMA)
Fri 07:56:42 PM 38.8067 -90.1742 283° West 263 303 8,000  Level FAA TRACON SMA TRACON (SMA)
Fri 07:57:01 PM 38.8158 -90.1992 295° West 253 291 8,000  Level FAA TRACON SMA TRACON (SMA)
Fri 07:57:21 PM 38.8250 -90.2231 296° West 245 282 8,000 -146 Level FAA TRACON SMA TRACON (SMA)
Fri 07:57:42 PM 38.8347 -90.2497 295° West 221 254 7,900 -878 Descending FAA TRACON SMA TRACON (SMA)
Fri 07:58:02 PM 38.8417 -90.2703 293° West 205 236 7,400 -1,500 Descending FAA TRACON SMA TRACON (SMA)
Fri 07:58:22 PM 38.8492 -90.2906 295° West 203 234 6,900 -1,800 Descending FAA TRACON SMA TRACON (SMA)
Fri 07:58:42 PM 38.8583 -90.3167 294° West 208 239 6,200 -1,950 Descending FAA TRACON SMA TRACON (SMA)
Fri 07:59:02 PM 38.8667 -90.3372 298° West 210 242 5,600 -1,846 Descending FAA TRACON SMA TRACON (SMA)
Fri 07:59:21 PM 38.8714 -90.3592 285° West 213 245 5,000 -1,846 Descending FAA TRACON SMA TRACON (SMA)
Fri 07:59:41 PM 38.8708 -90.3886 269° West 214 246 4,400 -1,317 Descending FAA TRACON SMA TRACON (SMA)
Fri 08:00:02 PM 38.8617 -90.4067 237° Southwest 216 249 4,100 -585 Descending FAA TRACON SMA TRACON (SMA)
Fri 08:00:22 PM 38.8469 -90.4175 210° Southwest 204 235 4,000 -300 Descending FAA TRACON SMA TRACON (SMA)
Fri 08:00:42 PM 38.8300 -90.4294 209° Southwest 183 211 3,900 -1,050 Descending FAA TRACON SMA TRACON (SMA)
Fri 08:01:02 PM 38.8167 -90.4269 172° South 177 204 3,300 -1,650 Descending FAA TRACON SMA TRACON (SMA)
Fri 08:01:22 PM 38.8022 -90.4158 149° Southeast 158 182 2,800 -1,500 Descending FAA TRACON SMA TRACON (SMA)

Login

Don't have an account? Register now (free) for customized features, flight alerts, and more!